Time;durP1;ratioP1;P1;durP2;ratioP2;P2;SDS_P1;SDS_P2;PMS_P1;PMS_P2;Temp;Humidity;BMP_temperature;BMP_pressure;BME280_temperature;BME280_humidity;BME280_pressure;Samples;Min_cycle;Max_cycle;Signal;HPM_P1;HPM_P2
2022/12/25 00:01:38;;;;;;;38.72;16.60;;;6.70;99.90;;;;;;5084942;28;20077;-76
2022/12/25 00:04:04;;;;;;;44.75;20.10;;;6.70;99.90;;;;;;5065254;28;20044;-75
2022/12/25 00:06:30;;;;;;;45.50;19.35;;;6.70;99.90;;;;;;5078369;28;20043;-76
2022/12/25 00:08:55;;;;;;;44.58;19.00;;;6.60;99.90;;;;;;5068877;28;20068;-76
2022/12/25 00:11:21;;;;;;;43.35;18.95;;;6.70;99.90;;;;;;5069996;28;20048;-75
2022/12/25 00:13:47;;;;;;;43.40;19.38;;;6.70;99.90;;;;;;5084117;28;20070;-76
2022/12/25 00:16:18;;;;;;;42.70;19.58;;;6.80;99.90;;;;;;5087806;28;20040;-75
2022/12/25 00:18:44;;;;;;;45.92;19.20;;;6.70;99.90;;;;;;5084246;28;20060;-76
2022/12/25 00:21:11;;;;;;;41.15;19.42;;;6.70;99.90;;;;;;5054484;28;20131;-75
2022/12/25 00:23:37;;;;;;;48.17;20.38;;;6.70;99.90;;;;;;5082927;28;20040;-76
2022/12/25 00:26:05;;;;;;;43.45;20.05;;;6.70;99.90;;;;;;5086652;28;20076;-75
2022/12/25 00:28:31;;;;;;;51.72;21.13;;;6.70;99.90;;;;;;5084402;28;20032;-75
2022/12/25 00:30:56;;;;;;;40.50;17.70;;;6.60;99.90;;;;;;5061894;28;20089;-76
2022/12/25 00:33:23;;;;;;;50.30;20.15;;;6.60;99.90;;;;;;5086526;28;20075;-75
2022/12/25 00:35:59;;;;;;;43.10;17.38;;;6.60;99.90;;;;;;5064394;28;20044;-75
2022/12/25 00:38:26;;;;;;;43.00;17.27;;;6.60;99.90;;;;;;5057434;28;20040;-76
2022/12/25 00:40:51;;;;;;;39.05;17.98;;;6.60;99.90;;;;;;5059571;28;20092;-76
2022/12/25 00:43:17;;;;;;;45.65;20.27;;;6.60;99.90;;;;;;5064258;28;20052;-76
2022/12/25 00:45:43;;;;;;;43.63;18.05;;;6.60;99.90;;;;;;5085129;28;20356;-76
2022/12/25 00:48:09;;;;;;;52.85;18.40;;;6.60;99.90;;;;;;5068553;28;20234;-76
2022/12/25 00:50:37;;;;;;;43.08;19.35;;;6.60;99.90;;;;;;5086258;28;20050;-76
2022/12/25 00:53:03;;;;;;;41.17;18.77;;;6.50;99.90;;;;;;5083605;28;20502;-76
2022/12/25 00:55:30;;;;;;;44.50;21.27;;;6.50;99.90;;;;;;5086704;28;20040;-76
2022/12/25 00:57:57;;;;;;;51.90;19.05;;;6.50;99.90;;;;;;5086923;28;20123;-76
2022/12/25 01:00:23;;;;;;;50.70;19.17;;;6.50;99.90;;;;;;5083814;28;20523;-76
2022/12/25 01:02:48;;;;;;;43.15;18.02;;;6.50;99.90;;;;;;5061159;28;20130;-76
2022/12/25 01:05:14;;;;;;;50.67;20.90;;;6.50;99.90;;;;;;5084949;28;20449;-76
2022/12/25 01:07:39;;;;;;;46.72;19.88;;;6.40;99.90;;;;;;5084007;28;20076;-76
2022/12/25 01:10:21;;;;;;;43.38;18.38;;;6.40;99.90;;;;;;5086287;28;20048;-76
2022/12/25 01:12:46;;;;;;;43.95;19.98;;;6.40;99.90;;;;;;5082776;28;20048;-76
2022/12/25 01:15:12;;;;;;;45.30;18.38;;;6.50;99.90;;;;;;5066261;28;20036;-76
2022/12/25 01:17:38;;;;;;;42.08;18.73;;;6.40;99.90;;;;;;5086029;28;20097;-75
2022/12/25 01:20:04;;;;;;;50.88;19.98;;;6.50;99.90;;;;;;5088158;28;20040;-75
2022/12/25 01:22:30;;;;;;;42.53;17.88;;;6.40;99.90;;;;;;5085178;28;20048;-76
2022/12/25 01:24:55;;;;;;;38.90;18.50;;;6.50;99.90;;;;;;5083299;28;20510;-76
2022/12/25 01:27:21;;;;;;;44.45;18.90;;;6.40;99.90;;;;;;5066288;28;20072;-75
2022/12/25 01:29:46;;;;;;;50.53;18.92;;;6.40;99.90;;;;;;5083333;28;20037;-76
2022/12/25 01:32:12;;;;;;;54.80;20.42;;;6.50;99.90;;;;;;5101338;28;20123;-76
2022/12/25 01:34:38;;;;;;;48.40;19.58;;;6.50;99.90;;;;;;5086107;28;20515;-76
2022/12/25 01:37:04;;;;;;;51.65;21.05;;;6.50;99.90;;;;;;5089432;28;20036;-75
2022/12/25 01:39:29;;;;;;;50.65;20.75;;;6.50;99.90;;;;;;5090832;28;20690;-76
2022/12/25 01:41:56;;;;;;;55.83;20.05;;;6.60;99.90;;;;;;5071178;28;20059;-76
2022/12/25 01:44:36;;;;;;;42.20;19.75;;;6.50;99.90;;;;;;5071750;28;20048;-76
2022/12/25 01:47:04;;;;;;;45.97;18.63;;;6.60;99.90;;;;;;5085862;28;20094;-76
2022/12/25 01:49:33;;;;;;;45.10;20.63;;;6.60;99.90;;;;;;5087592;28;20054;-75
2022/12/25 01:52:13;;;;;;;42.60;19.38;;;6.50;99.90;;;;;;5069884;28;20066;-76
2022/12/25 01:54:56;;;;;;;43.88;19.25;;;6.70;99.90;;;;;;5059701;28;20147;-76
2022/12/25 01:57:26;;;;;;;45.83;17.30;;;6.70;99.90;;;;;;5071583;28;20446;-76
2022/12/25 01:59:53;;;;;;;38.85;19.13;;;6.70;99.90;;;;;;5089151;28;20048;-76
2022/12/25 02:02:20;;;;;;;38.00;18.20;;;6.70;99.90;;;;;;5087263;28;20575;-76
2022/12/25 02:05:00;;;;;;;50.90;20.10;;;6.70;99.90;;;;;;5069807;28;20047;-76
2022/12/25 02:07:27;;;;;;;50.78;20.50;;;6.70;99.90;;;;;;5089021;28;20093;-75
2022/12/25 02:09:53;;;;;;;43.53;19.63;;;6.70;99.90;;;;;;5069179;28;20044;-75
2022/12/25 02:12:39;;;;;;;49.67;20.35;;;6.70;99.90;;;;;;5103805;28;20330;-76
2022/12/25 02:15:09;;;;;;;49.33;18.13;;;6.70;99.90;;;;;;5068220;28;20059;-76
2022/12/25 02:17:42;;;;;;;43.58;20.60;;;6.70;99.90;;;;;;5087497;28;20036;-76
2022/12/25 02:20:28;;;;;;;51.83;20.27;;;6.70;99.90;;;;;;5088938;28;20081;-76
2022/12/25 02:23:23;;;;;;;54.03;18.77;;;6.70;99.90;;;;;;5057140;28;20671;-76
2022/12/25 02:26:04;;;;;;;55.28;21.15;;;6.70;99.90;;;;;;5062030;28;20071;-76
2022/12/25 02:29:01;;;;;;;46.00;18.88;;;6.80;99.90;;;;;;5087354;28;20071;-75
2022/12/25 02:31:45;;;;;;;54.53;21.08;;;6.70;99.90;;;;;;5068410;28;20477;-76
2022/12/25 02:35:07;;;;;;;42.50;19.55;;;6.80;99.90;;;;;;5060032;28;20044;-76
2022/12/25 02:37:54;;;;;;;43.50;20.02;;;6.70;99.90;;;;;;4989679;28;20129;-76
2022/12/25 02:40:31;;;;;;;46.53;19.17;;;6.70;99.90;;;;;;5087052;28;20044;-76
2022/12/25 03:08:32;;;;;;;49.35;20.80;;;6.90;99.90;;;;;;5085200;28;20047;-75
2022/12/25 03:13:52;;;;;;;48.83;21.67;;;6.90;99.90;;;;;;5069019;28;20048;-76
2022/12/25 03:26:53;;;;;;;51.00;21.30;;;6.90;99.90;;;;;;5103019;28;20349;-76
2022/12/25 03:27:18;;;;;;;50.60;20.20;;;6.90;99.90;;;;;;5103448;28;20051;-76
2022/12/25 03:32:38;;;;;;;44.20;19.92;;;7.00;99.90;;;;;;5065923;28;20075;-76
2022/12/25 03:35:44;;;;;;;57.67;22.10;;;7.00;99.90;;;;;;5078429;28;20050;-76
2022/12/25 04:37:15;;;;;;;52.00;23.75;;;7.40;99.90;;;;;;5066409;28;20063;-76
2022/12/25 04:39:40;;;;;;;53.03;22.98;;;7.40;99.90;;;;;;5067574;28;20121;-76
2022/12/25 04:42:06;;;;;;;52.20;24.00;;;7.40;99.90;;;;;;5067848;28;20051;-76
2022/12/25 04:44:32;;;;;;;53.13;26.00;;;7.40;99.90;;;;;;5084698;28;20040;-76
2022/12/25 04:46:57;;;;;;;52.10;24.75;;;7.40;99.90;;;;;;5066674;28;20056;-76
2022/12/25 04:49:23;;;;;;;55.40;24.52;;;7.50;99.90;;;;;;5083431;28;20127;-76
2022/12/25 04:51:48;;;;;;;57.05;24.88;;;7.50;99.90;;;;;;5084332;28;20054;-76
2022/12/25 04:54:14;;;;;;;55.95;24.98;;;7.60;99.90;;;;;;5081352;28;20111;-75
2022/12/25 04:56:40;;;;;;;58.20;24.67;;;7.50;99.90;;;;;;5069265;28;20044;-76
2022/12/25 04:59:06;;;;;;;51.20;23.63;;;7.50;99.90;;;;;;5065945;28;20048;-76
2022/12/25 05:01:31;;;;;;;44.83;21.52;;;7.50;99.90;;;;;;5083681;28;20146;-76
2022/12/25 05:03:57;;;;;;;51.15;23.63;;;7.60;99.90;;;;;;5097543;28;20129;-76
2022/12/25 05:06:23;;;;;;;51.55;24.27;;;7.50;99.90;;;;;;5084846;28;20032;-76
2022/12/25 05:08:49;;;;;;;52.17;24.25;;;7.60;99.90;;;;;;5085607;28;20051;-76
2022/12/25 05:11:15;;;;;;;51.78;25.38;;;7.60;99.90;;;;;;5068401;28;20060;-76
2022/12/25 05:13:41;;;;;;;57.85;24.83;;;7.70;99.90;;;;;;5097950;28;20505;-76
2022/12/25 05:16:10;;;;;;;49.35;24.67;;;7.70;99.90;;;;;;5088405;28;20040;-76
2022/12/25 05:18:36;;;;;;;55.92;24.80;;;7.70;99.90;;;;;;5062658;28;20094;-76
2022/12/25 05:21:02;;;;;;;53.65;24.48;;;7.70;99.90;;;;;;5084713;28;20040;-76
2022/12/25 05:23:28;;;;;;;53.77;24.73;;;7.70;99.90;;;;;;5084335;28;20040;-76
2022/12/25 05:25:54;;;;;;;50.22;25.35;;;7.80;99.90;;;;;;5066276;28;20522;-76
2022/12/25 05:28:19;;;;;;;58.38;26.20;;;7.80;99.90;;;;;;5083720;28;20039;-76
2022/12/25 05:30:45;;;;;;;53.58;26.45;;;7.80;99.90;;;;;;5066773;28;20097;-76
2022/12/25 05:33:11;;;;;;;58.85;26.48;;;7.80;99.90;;;;;;5065555;28;20475;-76
2022/12/25 05:35:37;;;;;;;57.95;27.23;;;7.80;99.90;;;;;;5084785;28;20036;-76
2022/12/25 05:38:04;;;;;;;56.10;26.03;;;7.90;99.90;;;;;;5100047;28;20127;-76
2022/12/25 05:40:30;;;;;;;57.35;27.02;;;7.90;99.90;;;;;;5067869;28;20389;-76
2022/12/25 05:42:56;;;;;;;52.00;25.52;;;7.90;99.90;;;;;;5083374;28;20123;-76
2022/12/25 05:45:21;;;;;;;60.20;26.67;;;8.00;99.90;;;;;;5085917;28;20123;-76
2022/12/25 05:47:47;;;;;;;53.88;26.48;;;8.00;99.90;;;;;;5080251;28;20123;-76
2022/12/25 05:50:12;;;;;;;55.92;26.92;;;8.00;99.90;;;;;;5079232;28;20083;-76
2022/12/25 05:52:38;;;;;;;52.88;26.90;;;8.00;99.90;;;;;;5085674;28;20685;-76
2022/12/25 05:55:04;;;;;;;55.22;26.58;;;8.00;99.90;;;;;;5064936;28;21338;-76
2022/12/25 05:57:30;;;;;;;51.15;25.88;;;8.00;99.90;;;;;;5068313;28;20056;-76
2022/12/25 05:59:56;;;;;;;52.60;26.77;;;8.00;99.90;;;;;;5083023;28;20036;-76
2022/12/25 06:02:23;;;;;;;56.42;27.35;;;8.10;99.90;;;;;;5083991;28;20563;-76
2022/12/25 06:04:48;;;;;;;52.00;25.65;;;8.00;99.90;;;;;;5067516;28;20052;-76
2022/12/25 06:07:14;;;;;;;51.15;25.55;;;8.00;99.90;;;;;;5084902;28;20067;-76
2022/12/25 06:09:40;;;;;;;55.13;27.55;;;8.00;99.90;;;;;;5084270;28;20143;-77
2022/12/25 06:12:05;;;;;;;50.60;27.42;;;8.10;99.90;;;;;;5085355;28;20048;-76
2022/12/25 06:14:31;;;;;;;48.92;27.17;;;8.00;99.90;;;;;;5083196;28;20119;-76
2022/12/25 06:16:57;;;;;;;57.85;26.90;;;8.00;99.90;;;;;;5085177;28;20525;-76
2022/12/25 06:19:22;;;;;;;50.95;24.58;;;8.10;99.90;;;;;;5083536;28;20127;-76
2022/12/25 06:21:53;;;;;;;54.90;26.42;;;8.10;99.90;;;;;;5069447;28;20402;-77
2022/12/25 06:24:19;;;;;;;53.50;27.05;;;8.10;99.90;;;;;;5089822;28;20063;-76
2022/12/25 06:26:45;;;;;;;52.85;26.42;;;8.10;99.90;;;;;;5104781;28;20127;-76
2022/12/25 06:29:11;;;;;;;46.88;26.08;;;8.10;99.90;;;;;;5066319;28;20610;-76
2022/12/25 06:31:36;;;;;;;45.13;25.35;;;8.10;99.90;;;;;;5065614;28;20085;-76
2022/12/25 06:34:02;;;;;;;53.75;26.67;;;8.00;99.90;;;;;;5069867;28;20055;-76
2022/12/25 06:36:28;;;;;;;46.92;26.38;;;8.10;99.90;;;;;;5067181;28;20052;-76
2022/12/25 06:38:54;;;;;;;49.90;26.20;;;8.10;99.90;;;;;;5087640;28;20489;-76
2022/12/25 06:41:25;;;;;;;49.53;25.80;;;8.10;99.90;;;;;;5086159;28;20051;-77
2022/12/25 06:43:56;;;;;;;47.20;25.60;;;8.20;99.90;;;;;;5088119;28;20050;-76
2022/12/25 06:46:23;;;;;;;53.03;26.35;;;8.10;99.90;;;;;;5089169;28;20040;-76
2022/12/25 06:48:49;;;;;;;51.22;26.20;;;8.20;99.90;;;;;;5087670;28;20658;-77
2022/12/25 06:51:20;;;;;;;47.47;25.70;;;8.10;99.90;;;;;;5089165;28;20123;-76
2022/12/25 06:53:47;;;;;;;50.13;25.88;;;8.10;99.90;;;;;;5104412;28;20075;-76
2022/12/25 06:56:15;;;;;;;48.92;25.15;;;8.10;99.90;;;;;;5088928;28;20044;-77
2022/12/25 06:58:45;;;;;;;;;;;8.20;99.90;;;;;;5085265;28;20105;-77
2022/12/25 07:01:42;;;;;;;45.40;25.27;;;8.20;99.90;;;;;;5084425;28;20010;-76
2022/12/25 07:04:18;;;;;;;48.80;25.00;;;8.10;99.90;;;;;;5065633;28;20761;-76
2022/12/25 07:06:44;;;;;;;48.88;25.77;;;8.20;99.90;;;;;;5087022;28;20070;-77
2022/12/25 07:09:09;;;;;;;41.90;24.88;;;8.10;99.90;;;;;;5089017;28;20032;-76
2022/12/25 07:11:35;;;;;;;48.90;25.63;;;8.20;99.90;;;;;;5069745;28;20695;-76
2022/12/25 07:14:01;;;;;;;48.65;26.10;;;8.20;99.90;;;;;;5070604;28;20062;-76
2022/12/25 07:16:26;;;;;;;42.95;24.73;;;8.20;99.90;;;;;;5064076;28;20442;-76
2022/12/25 07:18:52;;;;;;;44.22;25.83;;;8.10;99.90;;;;;;5064958;28;20062;-76
2022/12/25 07:21:19;;;;;;;50.65;25.73;;;8.20;99.90;;;;;;5086445;28;20632;-77
2022/12/25 07:23:47;;;;;;;48.88;26.38;;;8.20;99.90;;;;;;5100868;28;20048;-76
2022/12/25 07:26:12;;;;;;;52.75;26.83;;;8.10;99.90;;;;;;5069698;28;20090;-76
2022/12/25 07:28:38;;;;;;;49.80;25.85;;;8.10;99.90;;;;;;5085780;28;20792;-76
2022/12/25 07:31:08;;;;;;;44.28;25.98;;;8.10;99.90;;;;;;5089235;28;20555;-77
2022/12/25 07:33:35;;;;;;;46.47;27.02;;;8.10;99.90;;;;;;5064528;28;20071;-76
2022/12/25 07:36:01;;;;;;;48.78;27.05;;;8.10;99.90;;;;;;5086268;28;20059;-76
2022/12/25 07:38:26;;;;;;;42.72;26.50;;;8.10;99.90;;;;;;5067382;28;20123;-76
2022/12/25 07:40:52;;;;;;;47.95;26.67;;;8.10;99.90;;;;;;5064567;28;20048;-76
2022/12/25 07:43:19;;;;;;;46.72;26.70;;;8.10;99.90;;;;;;5085541;28;20079;-76
2022/12/25 07:45:45;;;;;;;47.88;27.30;;;8.10;99.90;;;;;;5085927;28;20512;-76
2022/12/25 07:48:10;;;;;;;46.30;26.38;;;8.10;99.90;;;;;;5086438;28;20032;-76
2022/12/25 07:50:36;;;;;;;44.35;26.20;;;8.10;99.90;;;;;;5067938;28;20124;-76
2022/12/25 07:53:02;;;;;;;48.58;25.65;;;8.10;99.90;;;;;;5066017;28;20040;-77
2022/12/25 07:55:28;;;;;;;46.13;25.60;;;8.10;99.90;;;;;;5101984;27;20048;-77
2022/12/25 07:57:53;;;;;;;42.88;25.45;;;8.10;99.90;;;;;;5068143;28;20054;-74
2022/12/25 08:00:19;;;;;;;42.50;25.02;;;8.10;99.90;;;;;;5087134;28;20086;-76
2022/12/25 08:02:48;;;;;;;42.97;24.67;;;8.10;99.90;;;;;;5087630;28;20152;-76
2022/12/25 08:05:14;;;;;;;41.47;24.60;;;8.20;99.90;;;;;;5100759;28;20044;-72
2022/12/25 08:07:40;;;;;;;41.53;23.65;;;8.10;99.90;;;;;;5067436;28;20036;-77
2022/12/25 08:10:06;;;;;;;39.17;24.13;;;8.10;99.90;;;;;;5080983;28;20040;-76
2022/12/25 08:12:32;;;;;;;40.75;23.50;;;8.10;99.90;;;;;;5086045;28;20063;-75
2022/12/25 08:14:57;;;;;;;40.60;23.85;;;8.10;99.90;;;;;;5086909;28;20067;-76
2022/12/25 08:17:23;;;;;;;38.50;24.17;;;8.10;99.90;;;;;;5063637;28;20044;-76
2022/12/25 08:19:48;;;;;;;41.92;25.48;;;8.20;99.90;;;;;;5082290;28;20083;-76
2022/12/25 08:22:14;;;;;;;41.70;24.13;;;8.20;99.90;;;;;;5085632;28;20123;-76
2022/12/25 08:24:40;;;;;;;37.28;23.38;;;8.20;99.90;;;;;;5083638;28;20186;-81
2022/12/25 08:27:05;;;;;;;38.83;23.88;;;8.30;99.90;;;;;;5067635;28;20447;-75
2022/12/25 08:29:32;;;;;;;41.80;23.92;;;8.30;99.90;;;;;;5086951;28;20513;-74
2022/12/25 08:31:59;;;;;;;34.78;22.20;;;8.30;99.90;;;;;;5086391;28;20054;-75
2022/12/25 08:34:25;;;;;;;37.27;22.40;;;8.30;99.90;;;;;;5087000;28;20044;-78
2022/12/25 08:36:50;;;;;;;37.85;24.83;;;8.40;99.90;;;;;;5068706;28;20294;-76
2022/12/25 08:39:16;;;;;;;48.35;32.58;;;8.40;99.90;;;;;;5082389;28;20063;-73
2022/12/25 08:41:42;;;;;;;50.20;35.97;;;8.40;99.90;;;;;;5085111;28;20040;-74
2022/12/25 08:44:10;;;;;;;52.40;36.75;;;8.40;99.90;;;;;;5061790;28;20051;-74
2022/12/25 08:46:36;;;;;;;59.95;44.58;;;8.40;99.90;;;;;;5086632;28;20067;-73
2022/12/25 08:49:01;;;;;;;72.15;54.33;;;8.50;99.90;;;;;;5087294;28;20570;-73
2022/12/25 08:51:27;;;;;;;50.80;40.13;;;8.50;99.90;;;;;;5083981;28;20132;-72
2022/12/25 08:53:58;;;;;;;44.92;32.95;;;8.50;99.90;;;;;;5084135;28;20072;-77
2022/12/25 08:56:25;;;;;;;33.50;23.95;;;8.50;99.90;;;;;;5082430;28;20123;-77
2022/12/25 08:58:51;;;;;;;33.55;20.83;;;8.50;99.90;;;;;;5087622;28;20442;-77
2022/12/25 09:01:17;;;;;;;33.03;21.00;;;8.50;99.90;;;;;;5065429;28;20124;-77
2022/12/25 09:03:45;;;;;;;31.42;19.83;;;8.50;99.90;;;;;;5069545;28;20051;-77
2022/12/25 09:06:14;;;;;;;34.72;19.33;;;8.50;99.90;;;;;;5084972;28;20089;-77
2022/12/25 09:08:40;;;;;;;31.15;19.25;;;8.60;99.90;;;;;;5087946;28;20032;-76
2022/12/25 09:11:12;;;;;;;28.95;18.67;;;8.60;99.90;;;;;;5087408;28;20036;-77
2022/12/25 09:13:38;;;;;;;30.85;18.80;;;8.50;99.90;;;;;;5068720;28;20248;-77
2022/12/25 09:16:10;;;;;;;30.15;19.38;;;8.60;99.90;;;;;;5084629;28;20044;-77
2022/12/25 09:18:36;;;;;;;29.45;18.40;;;8.60;99.90;;;;;;5087184;28;20093;-77
2022/12/25 09:21:05;;;;;;;35.50;18.80;;;8.60;99.90;;;;;;5069978;28;20549;-77
2022/12/25 09:23:31;;;;;;;29.95;19.33;;;8.60;99.90;;;;;;5085879;28;20435;-77
2022/12/25 09:25:59;;;;;;;29.30;18.05;;;8.60;99.90;;;;;;5065603;28;20045;-77
2022/12/25 09:28:25;;;;;;;35.53;19.17;;;8.70;99.90;;;;;;5101039;28;20071;-77
2022/12/25 09:30:51;;;;;;;28.42;18.63;;;8.60;99.90;;;;;;5088693;28;20118;-77
2022/12/25 09:33:19;;;;;;;31.98;19.10;;;8.70;99.90;;;;;;5088680;28;20035;-76
2022/12/25 09:35:55;;;;;;;;;;;8.70;99.90;;;;;;5068684;28;20051;-77
2022/12/25 09:38:21;;;;;;;36.28;21.17;;;8.70;99.90;;;;;;5101576;28;19927;-77
2022/12/25 09:40:47;;;;;;;33.22;20.67;;;8.70;99.90;;;;;;5086685;28;20059;-77
2022/12/25 09:43:18;;;;;;;31.30;20.35;;;8.70;99.90;;;;;;5087305;28;20040;-77
2022/12/25 09:45:44;;;;;;;30.65;20.27;;;8.70;99.90;;;;;;5087763;28;20131;-78
2022/12/25 09:48:14;;;;;;;29.98;19.50;;;8.70;99.90;;;;;;5084442;28;20058;-77
2022/12/25 09:50:51;;;;;;;29.65;19.55;;;8.70;99.90;;;;;;5086841;28;20414;-77
2022/12/25 09:53:26;;;;;;;31.63;19.17;;;8.70;99.90;;;;;;5085766;28;20430;-77
2022/12/25 09:56:05;;;;;;;29.52;19.23;;;8.70;99.90;;;;;;5101163;28;20071;-78
2022/12/25 09:58:32;;;;;;;31.85;18.52;;;8.70;99.90;;;;;;5070291;28;20052;-78
2022/12/25 10:01:02;;;;;;;28.27;18.27;;;8.80;99.90;;;;;;5090491;28;20121;-78
2022/12/25 10:03:54;;;;;;;30.33;19.08;;;8.80;99.90;;;;;;5084700;28;20071;-74
2022/12/25 10:06:44;;;;;;;28.38;18.60;;;8.70;99.90;;;;;;5104966;28;20044;-75
2022/12/25 10:09:28;;;;;;;30.58;19.67;;;8.80;99.90;;;;;;5089556;28;20040;-75
2022/12/25 10:12:34;;;;;;;31.50;19.30;;;8.80;99.90;;;;;;5099342;27;20134;-79
2022/12/25 10:15:12;;;;;;;27.80;19.02;;;8.80;99.90;;;;;;5088068;28;20070;-78
2022/12/25 10:18:20;;;;;;;29.67;19.15;;;8.70;99.90;;;;;;5088003;28;20044;-77
2022/12/25 10:20:55;;;;;;;27.92;19.30;;;8.80;99.90;;;;;;5050197;28;20052;-79
2022/12/25 10:23:36;;;;;;;28.08;18.48;;;8.80;99.90;;;;;;5089567;28;20055;-80
2022/12/25 10:26:10;;;;;;;26.83;18.23;;;8.90;99.90;;;;;;5073058;28;20044;-77
2022/12/25 10:28:42;;;;;;;25.13;18.27;;;8.80;99.90;;;;;;5091201;28;20436;-78
2022/12/25 10:31:19;;;;;;;28.83;18.58;;;8.90;99.90;;;;;;5091536;28;20063;-76
2022/12/25 10:33:46;;;;;;;29.33;18.60;;;8.90;99.90;;;;;;5071184;28;20545;-77
2022/12/25 10:36:13;;;;;;;28.83;18.38;;;8.80;99.90;;;;;;5089757;28;20052;-78
2022/12/25 10:38:39;;;;;;;26.67;18.75;;;8.90;99.90;;;;;;5088027;28;20040;-78
2022/12/25 10:41:17;;;;;;;25.70;18.25;;;8.80;99.90;;;;;;5087161;28;20085;-79
2022/12/25 10:43:54;;;;;;;25.02;17.25;;;8.90;99.90;;;;;;5089354;28;20042;-77
2022/12/25 10:46:22;;;;;;;26.08;17.35;;;8.90;99.90;;;;;;5068092;28;20395;-77
2022/12/25 10:48:57;;;;;;;30.10;18.55;;;8.90;99.90;;;;;;5106283;28;20036;-82
2022/12/25 10:51:34;;;;;;;26.02;18.50;;;8.90;99.90;;;;;;5089817;28;20058;-77
2022/12/25 10:54:20;;;;;;;28.58;20.55;;;8.90;99.90;;;;;;5065853;28;20044;-76
2022/12/25 10:56:57;;;;;;;27.38;19.42;;;9.00;99.90;;;;;;5086034;28;20040;-77
2022/12/25 10:59:26;;;;;;;28.00;17.83;;;9.00;99.90;;;;;;5083762;28;20047;-78
2022/12/25 11:01:53;;;;;;;28.08;17.60;;;9.00;99.90;;;;;;5103012;27;20801;-77
2022/12/25 11:04:21;;;;;;;29.25;17.65;;;9.00;99.90;;;;;;5088422;28;20055;-79
2022/12/25 11:07:07;;;;;;;24.48;16.88;;;9.00;99.90;;;;;;5068820;28;20067;-81
2022/12/25 11:09:33;;;;;;;28.98;17.63;;;9.10;99.90;;;;;;5084842;28;20105;-78
2022/12/25 11:11:59;;;;;;;30.17;17.27;;;9.00;99.90;;;;;;5082258;28;20112;-80
2022/12/25 11:14:27;;;;;;;26.48;17.42;;;9.00;99.90;;;;;;5069854;28;20074;-79
2022/12/25 11:16:53;;;;;;;29.02;17.23;;;9.10;99.90;;;;;;5087181;28;20036;-78
2022/12/25 11:19:25;;;;;;;27.88;17.60;;;9.00;99.90;;;;;;5070529;28;20098;-79
2022/12/25 11:21:53;;;;;;;23.90;16.73;;;9.10;99.90;;;;;;5087997;28;20439;-79
2022/12/25 11:24:21;;;;;;;25.88;17.60;;;8.90;99.90;;;;;;5068075;28;20511;-78
2022/12/25 11:26:49;;;;;;;25.45;17.15;;;9.00;99.90;;;;;;5083003;28;20118;-79
2022/12/25 11:29:47;;;;;;;26.67;17.27;;;9.00;99.90;;;;;;5067054;28;20036;-80
2022/12/25 11:32:30;;;;;;;26.88;16.75;;;9.00;99.90;;;;;;5086502;28;20055;-78
2022/12/25 11:34:57;;;;;;;22.52;16.45;;;9.00;99.90;;;;;;5086489;28;20122;-81
2022/12/25 11:37:26;;;;;;;23.33;15.82;;;9.00;99.90;;;;;;5087624;28;20043;-78
2022/12/25 11:39:52;;;;;;;23.95;15.25;;;9.00;99.90;;;;;;5067983;28;20040;-79
2022/12/25 11:42:21;;;;;;;24.85;15.98;;;9.10;99.90;;;;;;5086743;28;20059;-81
2022/12/25 11:44:59;;;;;;;23.73;15.70;;;9.10;99.90;;;;;;5085958;28;20044;-77
2022/12/25 11:47:51;;;;;;;30.48;16.08;;;9.00;99.90;;;;;;5096501;28;20055;-84
2022/12/25 11:50:31;;;;;;;23.95;16.63;;;9.10;99.90;;;;;;5051973;28;20040;-83
2022/12/25 11:53:03;;;;;;;23.88;15.73;;;9.10;99.90;;;;;;5066885;28;20130;-79
2022/12/25 11:55:53;;;;;;;24.15;14.80;;;9.00;99.90;;;;;;5081867;28;20083;-82
2022/12/25 11:58:24;;;;;;;20.08;14.95;;;9.00;99.90;;;;;;5087193;28;20040;-81
2022/12/25 12:00:53;;;;;;;28.10;16.00;;;9.00;99.90;;;;;;5086962;28;20043;-80
2022/12/25 12:03:26;;;;;;;21.55;15.05;;;9.00;99.90;;;;;;5065861;28;20056;-81
2022/12/25 12:05:57;;;;;;;27.80;15.20;;;9.00;99.90;;;;;;5069693;28;20052;-82
2022/12/25 12:08:23;;;;;;;22.92;15.20;;;9.00;99.90;;;;;;5066767;28;20036;-76
2022/12/25 12:11:17;;;;;;;24.17;15.32;;;9.00;99.90;;;;;;5064943;28;20071;-77
2022/12/25 12:13:49;;;;;;;25.20;15.77;;;9.00;99.90;;;;;;5087953;28;20052;-79
2022/12/25 12:16:14;;;;;;;22.77;15.20;;;9.00;99.90;;;;;;5086875;28;20483;-76
2022/12/25 12:18:40;;;;;;;26.00;15.50;;;9.00;99.90;;;;;;5086893;28;20054;-78
2022/12/25 12:21:22;;;;;;;20.52;14.30;;;9.00;99.90;;;;;;5080580;28;20040;-79
2022/12/25 12:24:08;;;;;;;21.05;13.70;;;9.00;99.90;;;;;;5068021;28;20423;-82
2022/12/25 12:26:36;;;;;;;22.30;14.27;;;9.00;99.90;;;;;;5086323;28;20050;-80
2022/12/25 12:29:05;;;;;;;23.73;14.57;;;8.90;99.90;;;;;;5069298;28;20789;-77
2022/12/25 12:31:46;;;;;;;24.73;13.52;;;8.90;99.90;;;;;;5085968;28;20174;-73
2022/12/25 12:34:48;;;;;;;24.08;15.35;;;9.00;99.90;;;;;;5064420;28;20502;-82
2022/12/25 12:37:34;;;;;;;25.25;14.68;;;9.00;99.90;;;;;;5043129;28;20403;-77
2022/12/25 12:40:00;;;;;;;23.58;15.43;;;9.00;99.90;;;;;;5086442;28;20040;-77
2022/12/25 12:42:30;;;;;;;28.90;15.90;;;9.00;99.90;;;;;;5084286;28;20039;-75
2022/12/25 12:45:04;;;;;;;23.83;15.05;;;9.00;99.90;;;;;;5102506;28;20665;-75
2022/12/25 12:47:37;;;;;;;25.55;15.43;;;8.90;99.90;;;;;;5083227;28;20072;-76
2022/12/25 12:50:04;;;;;;;19.23;15.23;;;9.00;99.90;;;;;;5067857;28;20060;-89
2022/12/25 12:52:34;;;;;;;28.90;16.73;;;9.00;99.90;;;;;;5081996;28;20075;-79
2022/12/25 12:55:11;;;;;;;25.55;16.02;;;9.00;99.90;;;;;;5086408;28;20055;-77
2022/12/25 12:57:41;;;;;;;22.17;14.73;;;9.00;99.90;;;;;;5084517;28;20056;-76
2022/12/25 13:00:16;;;;;;;22.48;14.77;;;9.10;99.90;;;;;;5102614;28;20043;-76
2022/12/25 13:03:15;;;;;;;27.48;16.50;;;9.00;99.90;;;;;;5086939;28;20039;-77
2022/12/25 13:05:47;;;;;;;29.33;16.73;;;9.00;99.90;;;;;;5067519;28;20043;-77
2022/12/25 13:08:35;;;;;;;26.38;16.60;;;8.90;99.90;;;;;;5086294;28;20048;-77
2022/12/25 13:11:16;;;;;;;25.63;17.30;;;8.90;99.90;;;;;;5079742;28;20621;-76
2022/12/25 13:13:44;;;;;;;25.50;16.63;;;8.90;99.90;;;;;;5085770;28;20043;-78
2022/12/25 13:16:25;;;;;;;26.65;17.27;;;8.90;99.90;;;;;;5069355;28;20063;-79
2022/12/25 13:18:54;;;;;;;24.63;16.55;;;8.90;99.90;;;;;;5081043;28;20108;-79
2022/12/25 13:21:30;;;;;;;25.08;16.27;;;8.80;99.90;;;;;;5079969;28;20044;-76
2022/12/25 13:23:58;;;;;;;28.50;17.30;;;8.90;99.90;;;;;;5084536;28;20061;-76
2022/12/25 13:26:24;;;;;;;26.88;18.52;;;8.90;99.90;;;;;;5085969;28;20051;-75
2022/12/25 13:28:50;;;;;;;27.48;17.88;;;8.90;99.90;;;;;;5068209;28;20052;-76
2022/12/25 13:31:20;;;;;;;26.42;17.52;;;8.80;99.90;;;;;;5065397;28;20044;-78
2022/12/25 13:34:03;;;;;;;27.05;18.73;;;8.90;99.90;;;;;;5064828;28;20044;-78
2022/12/25 13:36:34;;;;;;;24.92;18.35;;;8.90;99.90;;;;;;5084443;28;20036;-74
2022/12/25 13:39:00;;;;;;;24.77;18.13;;;8.80;99.90;;;;;;5084198;28;20360;-83
2022/12/25 13:44:29;;;;;;;26.92;17.75;;;8.90;99.90;;;;;;5085143;28;20044;-80
2022/12/25 13:46:55;;;;;;;29.50;18.75;;;8.90;99.90;;;;;;5082983;28;20131;-77
2022/12/25 13:49:23;;;;;;;29.27;19.20;;;8.90;99.90;;;;;;5084979;28;20115;-76
2022/12/25 13:51:49;;;;;;;29.08;18.83;;;8.90;99.90;;;;;;5086006;28;20507;-77
2022/12/25 13:54:17;;;;;;;26.58;17.42;;;8.90;99.90;;;;;;5086112;28;20045;-77
2022/12/25 13:56:49;;;;;;;24.42;16.33;;;8.90;99.90;;;;;;5082337;28;20146;-74
2022/12/25 13:59:18;;;;;;;27.33;18.33;;;8.80;99.90;;;;;;5068375;28;20044;-74
2022/12/25 14:01:46;;;;;;;28.90;17.65;;;8.90;99.90;;;;;;5083428;28;20044;-73
2022/12/25 14:04:18;;;;;;;24.40;17.85;;;8.90;99.90;;;;;;5067788;28;20044;-76
2022/12/25 14:06:44;;;;;;;24.17;17.17;;;8.90;99.90;;;;;;5065536;28;20162;-75
2022/12/25 14:09:12;;;;;;;24.63;17.67;;;8.90;99.90;;;;;;5081421;28;20119;-76
2022/12/25 14:11:40;;;;;;;23.00;17.85;;;8.90;99.90;;;;;;5084238;28;20724;-75
2022/12/25 14:14:22;;;;;;;25.15;19.05;;;8.90;99.90;;;;;;5064500;28;20097;-75
2022/12/25 14:16:52;;;;;;;25.83;19.02;;;8.90;99.90;;;;;;5064900;28;20067;-79
2022/12/25 14:19:35;;;;;;;24.95;19.63;;;8.80;99.90;;;;;;5080848;28;20135;-75
2022/12/25 14:22:17;;;;;;;30.17;20.23;;;8.80;99.90;;;;;;5077002;28;20131;-76
2022/12/25 14:24:43;;;;;;;27.50;21.30;;;8.90;99.90;;;;;;5079206;28;20537;-75
2022/12/25 14:27:27;;;;;;;31.48;21.90;;;8.80;99.90;;;;;;5063262;28;20052;-81
2022/12/25 14:29:56;;;;;;;31.52;22.33;;;8.80;99.90;;;;;;5076895;28;20458;-76
2022/12/25 14:32:24;;;;;;;32.78;21.98;;;8.80;99.90;;;;;;5084559;28;20032;-76
2022/12/25 14:34:54;;;;;;;27.15;19.52;;;8.90;99.90;;;;;;5086261;28;20097;-77
2022/12/25 14:37:24;;;;;;;23.00;18.45;;;8.80;99.90;;;;;;5083236;28;20097;-77